sensor_id;sensor_type;location;lat;lon;timestamp;P1;durP1;ratioP1;P2;durP2;ratioP2
19643;SDS011;9970;-36.854;174.870;2023-04-07T00:00:25;6.90;;;6.90;;
19643;SDS011;9970;-36.854;174.870;2023-04-07T00:02:58;6.60;;;6.60;;
19643;SDS011;9970;-36.854;174.870;2023-04-07T00:05:33;6.40;;;6.40;;
19643;SDS011;9970;-36.854;174.870;2023-04-07T00:08:05;6.70;;;6.70;;
19643;SDS011;9970;-36.854;174.870;2023-04-07T00:10:38;6.60;;;6.60;;
19643;SDS011;9970;-36.854;174.870;2023-04-07T00:13:11;6.80;;;6.80;;
19643;SDS011;9970;-36.854;174.870;2023-04-07T00:15:44;6.57;;;6.57;;
19643;SDS011;9970;-36.854;174.870;2023-04-07T00:18:17;6.77;;;6.77;;
19643;SDS011;9970;-36.854;174.870;2023-04-07T00:20:50;6.70;;;6.70;;
19643;SDS011;9970;-36.854;174.870;2023-04-07T00:23:24;6.90;;;6.90;;
19643;SDS011;9970;-36.854;174.870;2023-04-07T00:25:56;7.10;;;7.10;;
19643;SDS011;9970;-36.854;174.870;2023-04-07T00:28:29;7.10;;;7.10;;
19643;SDS011;9970;-36.854;174.870;2023-04-07T00:31:02;7.17;;;7.17;;
19643;SDS011;9970;-36.854;174.870;2023-04-07T00:33:36;7.20;;;7.20;;
19643;SDS011;9970;-36.854;174.870;2023-04-07T00:36:09;7.30;;;7.30;;
19643;SDS011;9970;-36.854;174.870;2023-04-07T00:38:42;6.67;;;6.67;;
19643;SDS011;9970;-36.854;174.870;2023-04-07T00:41:15;7.43;;;7.43;;
19643;SDS011;9970;-36.854;174.870;2023-04-07T00:43:48;6.87;;;6.87;;
19643;SDS011;9970;-36.854;174.870;2023-04-07T00:46:22;7.30;;;7.30;;
19643;SDS011;9970;-36.854;174.870;2023-04-07T00:48:55;7.30;;;7.30;;
19643;SDS011;9970;-36.854;174.870;2023-04-07T00:51:27;7.10;;;7.10;;
19643;SDS011;9970;-36.854;174.870;2023-04-07T00:54:00;6.97;;;6.97;;
19643;SDS011;9970;-36.854;174.870;2023-04-07T00:56:33;6.93;;;6.93;;
19643;SDS011;9970;-36.854;174.870;2023-04-07T00:59:07;6.90;;;6.90;;
19643;SDS011;9970;-36.854;174.870;2023-04-07T01:01:44;6.80;;;6.80;;
19643;SDS011;9970;-36.854;174.870;2023-04-07T01:04:53;7.20;;;7.20;;
19643;SDS011;9970;-36.854;174.870;2023-04-07T01:07:39;7.07;;;7.07;;
19643;SDS011;9970;-36.854;174.870;2023-04-07T01:10:26;7.43;;;7.43;;
19643;SDS011;9970;-36.854;174.870;2023-04-07T01:13:07;7.30;;;7.30;;
19643;SDS011;9970;-36.854;174.870;2023-04-07T01:15:40;7.40;;;7.40;;
19643;SDS011;9970;-36.854;174.870;2023-04-07T01:18:16;6.50;;;6.50;;
19643;SDS011;9970;-36.854;174.870;2023-04-07T01:20:53;7.00;;;7.00;;
19643;SDS011;9970;-36.854;174.870;2023-04-07T01:26:29;6.80;;;6.80;;
19643;SDS011;9970;-36.854;174.870;2023-04-07T01:31:56;6.70;;;6.70;;
19643;SDS011;9970;-36.854;174.870;2023-04-07T01:34:30;6.60;;;6.60;;
19643;SDS011;9970;-36.854;174.870;2023-04-07T01:37:04;7.20;;;7.20;;
19643;SDS011;9970;-36.854;174.870;2023-04-07T01:39:37;7.03;;;7.03;;
19643;SDS011;9970;-36.854;174.870;2023-04-07T01:42:10;7.40;;;7.40;;
19643;SDS011;9970;-36.854;174.870;2023-04-07T01:44:44;6.50;;;6.50;;
19643;SDS011;9970;-36.854;174.870;2023-04-07T01:47:18;6.30;;;6.30;;
19643;SDS011;9970;-36.854;174.870;2023-04-07T01:49:51;6.20;;;6.20;;
19643;SDS011;9970;-36.854;174.870;2023-04-07T01:52:29;6.10;;;6.10;;
19643;SDS011;9970;-36.854;174.870;2023-04-07T01:54:58;6.40;;;6.40;;
19643;SDS011;9970;-36.854;174.870;2023-04-07T01:57:31;6.10;;;6.10;;
19643;SDS011;9970;-36.854;174.870;2023-04-07T02:00:05;5.57;;;5.57;;
19643;SDS011;9970;-36.854;174.870;2023-04-07T02:02:39;5.60;;;5.60;;
19643;SDS011;9970;-36.854;174.870;2023-04-07T02:05:14;5.43;;;5.43;;
19643;SDS011;9970;-36.854;174.870;2023-04-07T02:07:51;5.80;;;5.80;;
19643;SDS011;9970;-36.854;174.870;2023-04-07T02:10:28;5.57;;;5.57;;
19643;SDS011;9970;-36.854;174.870;2023-04-07T02:13:04;5.73;;;5.73;;
19643;SDS011;9970;-36.854;174.870;2023-04-07T02:15:43;5.27;;;5.27;;
19643;SDS011;9970;-36.854;174.870;2023-04-07T02:18:13;5.30;;;5.30;;
19643;SDS011;9970;-36.854;174.870;2023-04-07T02:20:47;5.70;;;5.70;;
19643;SDS011;9970;-36.854;174.870;2023-04-07T02:23:22;5.50;;;5.50;;
19643;SDS011;9970;-36.854;174.870;2023-04-07T02:25:55;5.50;;;5.50;;
19643;SDS011;9970;-36.854;174.870;2023-04-07T02:28:28;5.90;;;5.90;;
19643;SDS011;9970;-36.854;174.870;2023-04-07T02:31:01;5.90;;;5.90;;
19643;SDS011;9970;-36.854;174.870;2023-04-07T02:33:34;5.80;;;5.80;;
19643;SDS011;9970;-36.854;174.870;2023-04-07T02:36:07;5.93;;;5.93;;
19643;SDS011;9970;-36.854;174.870;2023-04-07T02:38:40;5.30;;;5.30;;
19643;SDS011;9970;-36.854;174.870;2023-04-07T02:41:17;5.50;;;5.50;;
19643;SDS011;9970;-36.854;174.870;2023-04-07T02:43:50;5.33;;;5.33;;
19643;SDS011;9970;-36.854;174.870;2023-04-07T02:46:24;5.80;;;5.80;;
19643;SDS011;9970;-36.854;174.870;2023-04-07T02:48:57;5.50;;;5.50;;
19643;SDS011;9970;-36.854;174.870;2023-04-07T02:51:30;5.30;;;5.30;;
19643;SDS011;9970;-36.854;174.870;2023-04-07T02:54:02;5.23;;;5.23;;
19643;SDS011;9970;-36.854;174.870;2023-04-07T02:56:35;5.10;;;5.10;;
19643;SDS011;9970;-36.854;174.870;2023-04-07T02:59:08;5.10;;;5.10;;
19643;SDS011;9970;-36.854;174.870;2023-04-07T03:01:41;5.10;;;5.10;;
19643;SDS011;9970;-36.854;174.870;2023-04-07T03:04:14;5.20;;;5.20;;
19643;SDS011;9970;-36.854;174.870;2023-04-07T03:06:47;5.10;;;5.10;;
19643;SDS011;9970;-36.854;174.870;2023-04-07T03:09:20;5.00;;;5.00;;
19643;SDS011;9970;-36.854;174.870;2023-04-07T03:11:53;4.90;;;4.90;;
19643;SDS011;9970;-36.854;174.870;2023-04-07T03:14:26;4.80;;;4.80;;
19643;SDS011;9970;-36.854;174.870;2023-04-07T03:16:59;4.90;;;4.90;;
19643;SDS011;9970;-36.854;174.870;2023-04-07T03:19:32;5.40;;;5.40;;
19643;SDS011;9970;-36.854;174.870;2023-04-07T03:22:05;5.40;;;5.40;;
19643;SDS011;9970;-36.854;174.870;2023-04-07T03:24:39;5.67;;;5.67;;
19643;SDS011;9970;-36.854;174.870;2023-04-07T03:27:11;5.90;;;5.90;;
19643;SDS011;9970;-36.854;174.870;2023-04-07T03:29:46;5.60;;;5.60;;
19643;SDS011;9970;-36.854;174.870;2023-04-07T03:32:19;5.63;;;5.63;;
19643;SDS011;9970;-36.854;174.870;2023-04-07T03:34:52;5.80;;;5.80;;
19643;SDS011;9970;-36.854;174.870;2023-04-07T03:37:25;5.50;;;5.50;;
19643;SDS011;9970;-36.854;174.870;2023-04-07T03:39:58;5.60;;;5.60;;
19643;SDS011;9970;-36.854;174.870;2023-04-07T03:42:31;5.70;;;5.70;;
19643;SDS011;9970;-36.854;174.870;2023-04-07T03:45:04;5.60;;;5.60;;
19643;SDS011;9970;-36.854;174.870;2023-04-07T03:47:37;5.40;;;5.40;;
19643;SDS011;9970;-36.854;174.870;2023-04-07T03:50:10;5.60;;;5.60;;
19643;SDS011;9970;-36.854;174.870;2023-04-07T03:52:44;5.70;;;5.70;;
19643;SDS011;9970;-36.854;174.870;2023-04-07T03:55:17;5.60;;;5.60;;
19643;SDS011;9970;-36.854;174.870;2023-04-07T03:57:50;5.53;;;5.53;;
19643;SDS011;9970;-36.854;174.870;2023-04-07T04:00:22;5.17;;;5.17;;
19643;SDS011;9970;-36.854;174.870;2023-04-07T04:02:55;5.50;;;5.50;;
19643;SDS011;9970;-36.854;174.870;2023-04-07T04:05:28;5.20;;;5.20;;
19643;SDS011;9970;-36.854;174.870;2023-04-07T04:08:01;5.50;;;5.50;;
19643;SDS011;9970;-36.854;174.870;2023-04-07T04:10:35;5.53;;;5.53;;
19643;SDS011;9970;-36.854;174.870;2023-04-07T04:13:08;5.27;;;5.27;;
19643;SDS011;9970;-36.854;174.870;2023-04-07T04:15:41;5.10;;;5.10;;
19643;SDS011;9970;-36.854;174.870;2023-04-07T04:18:15;5.10;;;5.10;;
19643;SDS011;9970;-36.854;174.870;2023-04-07T04:20:47;5.10;;;5.10;;
19643;SDS011;9970;-36.854;174.870;2023-04-07T04:23:21;5.20;;;5.20;;
19643;SDS011;9970;-36.854;174.870;2023-04-07T04:25:54;5.20;;;5.20;;
19643;SDS011;9970;-36.854;174.870;2023-04-07T04:28:28;4.90;;;4.90;;
19643;SDS011;9970;-36.854;174.870;2023-04-07T04:31:00;4.80;;;4.80;;
19643;SDS011;9970;-36.854;174.870;2023-04-07T04:33:34;4.87;;;4.87;;
19643;SDS011;9970;-36.854;174.870;2023-04-07T04:36:07;4.93;;;4.93;;
19643;SDS011;9970;-36.854;174.870;2023-04-07T04:38:40;4.93;;;4.93;;
19643;SDS011;9970;-36.854;174.870;2023-04-07T04:41:13;6.00;;;6.00;;
19643;SDS011;9970;-36.854;174.870;2023-04-07T04:43:46;6.17;;;6.17;;
19643;SDS011;9970;-36.854;174.870;2023-04-07T04:46:19;5.00;;;5.00;;
19643;SDS011;9970;-36.854;174.870;2023-04-07T04:48:52;4.70;;;4.70;;
19643;SDS011;9970;-36.854;174.870;2023-04-07T04:51:25;4.60;;;4.60;;
19643;SDS011;9970;-36.854;174.870;2023-04-07T04:53:57;4.50;;;4.50;;
19643;SDS011;9970;-36.854;174.870;2023-04-07T04:56:32;5.40;;;5.40;;
19643;SDS011;9970;-36.854;174.870;2023-04-07T04:59:05;4.80;;;4.80;;
19643;SDS011;9970;-36.854;174.870;2023-04-07T05:01:38;4.80;;;4.80;;
19643;SDS011;9970;-36.854;174.870;2023-04-07T05:04:11;6.60;;;6.60;;
19643;SDS011;9970;-36.854;174.870;2023-04-07T05:06:45;5.20;;;5.20;;
19643;SDS011;9970;-36.854;174.870;2023-04-07T05:09:18;5.20;;;5.20;;
19643;SDS011;9970;-36.854;174.870;2023-04-07T05:11:53;5.10;;;5.10;;
19643;SDS011;9970;-36.854;174.870;2023-04-07T05:14:26;5.00;;;5.00;;
19643;SDS011;9970;-36.854;174.870;2023-04-07T05:17:00;5.10;;;5.10;;
19643;SDS011;9970;-36.854;174.870;2023-04-07T05:19:33;5.10;;;5.10;;
19643;SDS011;9970;-36.854;174.870;2023-04-07T05:22:06;4.90;;;4.90;;
19643;SDS011;9970;-36.854;174.870;2023-04-07T05:24:39;4.80;;;4.80;;
19643;SDS011;9970;-36.854;174.870;2023-04-07T05:27:15;4.80;;;4.80;;
19643;SDS011;9970;-36.854;174.870;2023-04-07T05:29:48;4.80;;;4.80;;
19643;SDS011;9970;-36.854;174.870;2023-04-07T05:32:21;5.07;;;5.07;;
19643;SDS011;9970;-36.854;174.870;2023-04-07T05:34:54;4.90;;;4.90;;
19643;SDS011;9970;-36.854;174.870;2023-04-07T05:37:27;5.23;;;5.23;;
19643;SDS011;9970;-36.854;174.870;2023-04-07T05:40:00;4.90;;;4.90;;
19643;SDS011;9970;-36.854;174.870;2023-04-07T05:42:32;4.70;;;4.70;;
19643;SDS011;9970;-36.854;174.870;2023-04-07T05:45:06;5.20;;;5.20;;
19643;SDS011;9970;-36.854;174.870;2023-04-07T05:47:39;5.30;;;5.30;;
19643;SDS011;9970;-36.854;174.870;2023-04-07T05:50:12;4.83;;;4.83;;
19643;SDS011;9970;-36.854;174.870;2023-04-07T05:52:45;4.80;;;4.80;;
19643;SDS011;9970;-36.854;174.870;2023-04-07T05:55:20;4.80;;;4.80;;
19643;SDS011;9970;-36.854;174.870;2023-04-07T05:57:53;4.70;;;4.70;;
19643;SDS011;9970;-36.854;174.870;2023-04-07T06:00:26;4.70;;;4.70;;
19643;SDS011;9970;-36.854;174.870;2023-04-07T06:02:59;4.50;;;4.50;;
19643;SDS011;9970;-36.854;174.870;2023-04-07T06:05:32;4.70;;;4.70;;
19643;SDS011;9970;-36.854;174.870;2023-04-07T06:08:05;4.50;;;4.50;;
19643;SDS011;9970;-36.854;174.870;2023-04-07T06:10:38;4.70;;;4.70;;
19643;SDS011;9970;-36.854;174.870;2023-04-07T06:13:12;4.60;;;4.60;;
19643;SDS011;9970;-36.854;174.870;2023-04-07T06:15:45;4.30;;;4.30;;
19643;SDS011;9970;-36.854;174.870;2023-04-07T06:18:18;4.00;;;4.00;;
19643;SDS011;9970;-36.854;174.870;2023-04-07T06:20:50;4.10;;;4.10;;
19643;SDS011;9970;-36.854;174.870;2023-04-07T06:23:23;4.10;;;4.10;;
19643;SDS011;9970;-36.854;174.870;2023-04-07T06:25:56;4.03;;;4.03;;
19643;SDS011;9970;-36.854;174.870;2023-04-07T06:28:32;4.07;;;4.07;;
19643;SDS011;9970;-36.854;174.870;2023-04-07T06:31:07;4.00;;;4.00;;
19643;SDS011;9970;-36.854;174.870;2023-04-07T06:33:39;4.00;;;4.00;;
19643;SDS011;9970;-36.854;174.870;2023-04-07T06:36:12;4.20;;;4.20;;
19643;SDS011;9970;-36.854;174.870;2023-04-07T06:38:45;4.30;;;4.30;;
19643;SDS011;9970;-36.854;174.870;2023-04-07T06:41:18;4.40;;;4.40;;
19643;SDS011;9970;-36.854;174.870;2023-04-07T06:43:51;4.10;;;4.10;;
19643;SDS011;9970;-36.854;174.870;2023-04-07T06:46:23;3.80;;;3.80;;
19643;SDS011;9970;-36.854;174.870;2023-04-07T06:48:56;4.07;;;4.07;;
19643;SDS011;9970;-36.854;174.870;2023-04-07T06:51:29;4.03;;;4.03;;
19643;SDS011;9970;-36.854;174.870;2023-04-07T06:54:02;4.00;;;4.00;;
19643;SDS011;9970;-36.854;174.870;2023-04-07T06:56:36;4.30;;;4.30;;
19643;SDS011;9970;-36.854;174.870;2023-04-07T06:59:09;4.10;;;4.10;;
19643;SDS011;9970;-36.854;174.870;2023-04-07T07:01:42;4.13;;;4.13;;
19643;SDS011;9970;-36.854;174.870;2023-04-07T07:04:15;4.20;;;4.20;;
19643;SDS011;9970;-36.854;174.870;2023-04-07T07:06:48;4.00;;;4.00;;
19643;SDS011;9970;-36.854;174.870;2023-04-07T07:09:20;4.30;;;4.30;;
19643;SDS011;9970;-36.854;174.870;2023-04-07T07:11:53;4.40;;;4.40;;
19643;SDS011;9970;-36.854;174.870;2023-04-07T07:14:26;4.03;;;4.03;;
19643;SDS011;9970;-36.854;174.870;2023-04-07T07:16:59;4.20;;;4.20;;
19643;SDS011;9970;-36.854;174.870;2023-04-07T07:19:32;4.47;;;4.47;;
19643;SDS011;9970;-36.854;174.870;2023-04-07T07:22:05;4.63;;;4.63;;
19643;SDS011;9970;-36.854;174.870;2023-04-07T07:24:38;4.50;;;4.50;;
19643;SDS011;9970;-36.854;174.870;2023-04-07T07:27:11;4.30;;;4.30;;
19643;SDS011;9970;-36.854;174.870;2023-04-07T07:29:44;4.40;;;4.40;;
19643;SDS011;9970;-36.854;174.870;2023-04-07T07:32:18;4.40;;;4.40;;
19643;SDS011;9970;-36.854;174.870;2023-04-07T07:34:50;4.50;;;4.50;;
19643;SDS011;9970;-36.854;174.870;2023-04-07T07:37:23;4.30;;;4.30;;
19643;SDS011;9970;-36.854;174.870;2023-04-07T07:39:56;4.63;;;4.63;;
19643;SDS011;9970;-36.854;174.870;2023-04-07T07:42:29;4.20;;;4.20;;
19643;SDS011;9970;-36.854;174.870;2023-04-07T07:45:02;4.43;;;4.43;;
19643;SDS011;9970;-36.854;174.870;2023-04-07T07:47:35;4.20;;;4.20;;
19643;SDS011;9970;-36.854;174.870;2023-04-07T07:50:08;4.20;;;4.20;;
19643;SDS011;9970;-36.854;174.870;2023-04-07T07:52:41;4.20;;;4.20;;
19643;SDS011;9970;-36.854;174.870;2023-04-07T07:55:14;3.80;;;3.80;;
19643;SDS011;9970;-36.854;174.870;2023-04-07T07:57:47;3.77;;;3.77;;
19643;SDS011;9970;-36.854;174.870;2023-04-07T08:00:20;3.97;;;3.97;;
19643;SDS011;9970;-36.854;174.870;2023-04-07T08:02:53;3.90;;;3.90;;
19643;SDS011;9970;-36.854;174.870;2023-04-07T08:05:26;3.90;;;3.90;;
19643;SDS011;9970;-36.854;174.870;2023-04-07T08:07:59;3.90;;;3.90;;
19643;SDS011;9970;-36.854;174.870;2023-04-07T08:10:32;3.83;;;3.83;;
19643;SDS011;9970;-36.854;174.870;2023-04-07T08:13:05;3.90;;;3.90;;
19643;SDS011;9970;-36.854;174.870;2023-04-07T08:15:38;3.90;;;3.90;;
19643;SDS011;9970;-36.854;174.870;2023-04-07T08:18:11;3.80;;;3.80;;
19643;SDS011;9970;-36.854;174.870;2023-04-07T08:20:44;4.00;;;4.00;;
19643;SDS011;9970;-36.854;174.870;2023-04-07T08:23:16;3.80;;;3.80;;
19643;SDS011;9970;-36.854;174.870;2023-04-07T08:25:49;3.90;;;3.90;;
19643;SDS011;9970;-36.854;174.870;2023-04-07T08:28:23;3.80;;;3.80;;
19643;SDS011;9970;-36.854;174.870;2023-04-07T08:30:56;4.10;;;4.10;;
19643;SDS011;9970;-36.854;174.870;2023-04-07T08:33:29;3.80;;;3.80;;
19643;SDS011;9970;-36.854;174.870;2023-04-07T08:36:02;3.90;;;3.90;;
19643;SDS011;9970;-36.854;174.870;2023-04-07T08:38:35;3.70;;;3.70;;
19643;SDS011;9970;-36.854;174.870;2023-04-07T08:41:12;3.70;;;3.70;;
19643;SDS011;9970;-36.854;174.870;2023-04-07T08:43:47;3.70;;;3.70;;
19643;SDS011;9970;-36.854;174.870;2023-04-07T08:46:22;3.90;;;3.90;;
19643;SDS011;9970;-36.854;174.870;2023-04-07T08:48:56;4.00;;;4.00;;
19643;SDS011;9970;-36.854;174.870;2023-04-07T08:51:31;5.60;;;5.60;;
19643;SDS011;9970;-36.854;174.870;2023-04-07T08:54:05;4.30;;;4.30;;
19643;SDS011;9970;-36.854;174.870;2023-04-07T08:56:41;4.10;;;4.10;;
19643;SDS011;9970;-36.854;174.870;2023-04-07T08:59:14;4.20;;;4.20;;
19643;SDS011;9970;-36.854;174.870;2023-04-07T09:01:47;3.80;;;3.80;;
19643;SDS011;9970;-36.854;174.870;2023-04-07T09:04:21;3.70;;;3.70;;
19643;SDS011;9970;-36.854;174.870;2023-04-07T09:06:56;3.70;;;3.70;;
19643;SDS011;9970;-36.854;174.870;2023-04-07T09:09:30;3.60;;;3.60;;
19643;SDS011;9970;-36.854;174.870;2023-04-07T09:12:02;3.60;;;3.60;;
19643;SDS011;9970;-36.854;174.870;2023-04-07T09:14:35;3.50;;;3.50;;
19643;SDS011;9970;-36.854;174.870;2023-04-07T09:17:08;3.40;;;3.40;;
19643;SDS011;9970;-36.854;174.870;2023-04-07T09:19:42;3.40;;;3.40;;
19643;SDS011;9970;-36.854;174.870;2023-04-07T09:25:23;3.80;;;3.80;;
19643;SDS011;9970;-36.854;174.870;2023-04-07T09:27:58;3.47;;;3.47;;
19643;SDS011;9970;-36.854;174.870;2023-04-07T09:30:33;3.40;;;3.40;;
19643;SDS011;9970;-36.854;174.870;2023-04-07T09:33:06;3.47;;;3.47;;
19643;SDS011;9970;-36.854;174.870;2023-04-07T09:35:52;3.50;;;3.50;;
19643;SDS011;9970;-36.854;174.870;2023-04-07T09:38:31;3.30;;;3.30;;
19643;SDS011;9970;-36.854;174.870;2023-04-07T09:41:06;3.30;;;3.30;;
19643;SDS011;9970;-36.854;174.870;2023-04-07T09:43:44;3.40;;;3.40;;
19643;SDS011;9970;-36.854;174.870;2023-04-07T09:46:17;3.47;;;3.47;;
19643;SDS011;9970;-36.854;174.870;2023-04-07T09:48:59;3.50;;;3.50;;
19643;SDS011;9970;-36.854;174.870;2023-04-07T09:51:26;3.50;;;3.50;;
19643;SDS011;9970;-36.854;174.870;2023-04-07T09:53:59;3.30;;;3.30;;
19643;SDS011;9970;-36.854;174.870;2023-04-07T09:56:32;3.43;;;3.43;;
19643;SDS011;9970;-36.854;174.870;2023-04-07T09:59:06;3.40;;;3.40;;
19643;SDS011;9970;-36.854;174.870;2023-04-07T10:01:40;3.20;;;3.20;;
19643;SDS011;9970;-36.854;174.870;2023-04-07T10:04:13;3.20;;;3.20;;
19643;SDS011;9970;-36.854;174.870;2023-04-07T10:06:46;3.50;;;3.50;;
19643;SDS011;9970;-36.854;174.870;2023-04-07T10:09:19;3.30;;;3.30;;
19643;SDS011;9970;-36.854;174.870;2023-04-07T10:11:53;3.30;;;3.30;;
19643;SDS011;9970;-36.854;174.870;2023-04-07T10:14:29;3.00;;;3.00;;
19643;SDS011;9970;-36.854;174.870;2023-04-07T10:17:02;3.10;;;3.10;;
19643;SDS011;9970;-36.854;174.870;2023-04-07T10:19:36;3.10;;;3.10;;
19643;SDS011;9970;-36.854;174.870;2023-04-07T10:22:13;3.30;;;3.30;;
19643;SDS011;9970;-36.854;174.870;2023-04-07T10:27:31;3.10;;;3.10;;
19643;SDS011;9970;-36.854;174.870;2023-04-07T10:30:06;3.30;;;3.30;;
19643;SDS011;9970;-36.854;174.870;2023-04-07T10:32:48;3.30;;;3.30;;
19643;SDS011;9970;-36.854;174.870;2023-04-07T10:35:22;3.30;;;3.30;;
19643;SDS011;9970;-36.854;174.870;2023-04-07T10:40:45;3.30;;;3.30;;
19643;SDS011;9970;-36.854;174.870;2023-04-07T10:43:40;3.30;;;3.30;;
19643;SDS011;9970;-36.854;174.870;2023-04-07T10:46:03;3.20;;;3.20;;
19643;SDS011;9970;-36.854;174.870;2023-04-07T10:48:36;3.13;;;3.13;;
19643;SDS011;9970;-36.854;174.870;2023-04-07T10:51:12;3.20;;;3.20;;
19643;SDS011;9970;-36.854;174.870;2023-04-07T10:59:41;3.10;;;3.10;;
19643;SDS011;9970;-36.854;174.870;2023-04-07T11:02:32;3.00;;;3.00;;
19643;SDS011;9970;-36.854;174.870;2023-04-07T11:05:18;3.07;;;3.07;;
19643;SDS011;9970;-36.854;174.870;2023-04-07T11:07:52;3.10;;;3.10;;
19643;SDS011;9970;-36.854;174.870;2023-04-07T11:10:26;3.10;;;3.10;;
19643;SDS011;9970;-36.854;174.870;2023-04-07T11:13:00;3.00;;;3.00;;
19643;SDS011;9970;-36.854;174.870;2023-04-07T11:15:35;3.00;;;3.00;;
19643;SDS011;9970;-36.854;174.870;2023-04-07T11:18:12;3.10;;;3.10;;
19643;SDS011;9970;-36.854;174.870;2023-04-07T11:20:51;3.10;;;3.10;;
19643;SDS011;9970;-36.854;174.870;2023-04-07T11:23:24;3.00;;;3.00;;
19643;SDS011;9970;-36.854;174.870;2023-04-07T11:26:01;3.00;;;3.00;;
19643;SDS011;9970;-36.854;174.870;2023-04-07T11:28:35;3.27;;;3.27;;
19643;SDS011;9970;-36.854;174.870;2023-04-07T11:31:24;3.13;;;3.13;;
19643;SDS011;9970;-36.854;174.870;2023-04-07T11:33:59;3.10;;;3.10;;
19643;SDS011;9970;-36.854;174.870;2023-04-07T11:36:34;2.97;;;2.97;;
19643;SDS011;9970;-36.854;174.870;2023-04-07T11:39:20;2.90;;;2.90;;
19643;SDS011;9970;-36.854;174.870;2023-04-07T11:41:54;2.80;;;2.80;;
19643;SDS011;9970;-36.854;174.870;2023-04-07T11:44:27;2.80;;;2.80;;
19643;SDS011;9970;-36.854;174.870;2023-04-07T11:47:00;2.90;;;2.90;;
19643;SDS011;9970;-36.854;174.870;2023-04-07T11:49:34;2.80;;;2.80;;
19643;SDS011;9970;-36.854;174.870;2023-04-07T11:52:08;2.80;;;2.80;;
19643;SDS011;9970;-36.854;174.870;2023-04-07T11:54:44;2.70;;;2.70;;
19643;SDS011;9970;-36.854;174.870;2023-04-07T11:57:26;2.60;;;2.60;;
19643;SDS011;9970;-36.854;174.870;2023-04-07T12:00:07;2.67;;;2.67;;
19643;SDS011;9970;-36.854;174.870;2023-04-07T12:02:40;2.70;;;2.70;;
19643;SDS011;9970;-36.854;174.870;2023-04-07T12:05:13;2.60;;;2.60;;
19643;SDS011;9970;-36.854;174.870;2023-04-07T12:07:52;2.80;;;2.80;;
19643;SDS011;9970;-36.854;174.870;2023-04-07T12:10:26;2.60;;;2.60;;
19643;SDS011;9970;-36.854;174.870;2023-04-07T12:12:59;3.00;;;3.00;;
19643;SDS011;9970;-36.854;174.870;2023-04-07T12:15:32;2.60;;;2.60;;
19643;SDS011;9970;-36.854;174.870;2023-04-07T12:18:06;2.40;;;2.40;;
19643;SDS011;9970;-36.854;174.870;2023-04-07T12:20:39;2.50;;;2.50;;
19643;SDS011;9970;-36.854;174.870;2023-04-07T12:23:12;2.50;;;2.50;;
19643;SDS011;9970;-36.854;174.870;2023-04-07T12:25:45;2.50;;;2.50;;
19643;SDS011;9970;-36.854;174.870;2023-04-07T12:28:21;2.40;;;2.40;;
19643;SDS011;9970;-36.854;174.870;2023-04-07T12:30:54;2.50;;;2.50;;
19643;SDS011;9970;-36.854;174.870;2023-04-07T12:33:33;2.60;;;2.60;;
19643;SDS011;9970;-36.854;174.870;2023-04-07T12:36:06;2.40;;;2.40;;
19643;SDS011;9970;-36.854;174.870;2023-04-07T12:38:39;2.63;;;2.63;;
19643;SDS011;9970;-36.854;174.870;2023-04-07T12:41:12;2.50;;;2.50;;
19643;SDS011;9970;-36.854;174.870;2023-04-07T12:43:45;2.50;;;2.50;;
19643;SDS011;9970;-36.854;174.870;2023-04-07T12:46:21;2.50;;;2.50;;
19643;SDS011;9970;-36.854;174.870;2023-04-07T12:48:54;2.40;;;2.40;;
19643;SDS011;9970;-36.854;174.870;2023-04-07T12:51:27;2.50;;;2.50;;
19643;SDS011;9970;-36.854;174.870;2023-04-07T12:54:02;2.50;;;2.50;;
19643;SDS011;9970;-36.854;174.870;2023-04-07T12:56:35;2.40;;;2.40;;
19643;SDS011;9970;-36.854;174.870;2023-04-07T12:59:09;2.50;;;2.50;;
19643;SDS011;9970;-36.854;174.870;2023-04-07T13:01:42;2.40;;;2.40;;
19643;SDS011;9970;-36.854;174.870;2023-04-07T13:04:17;2.50;;;2.50;;
19643;SDS011;9970;-36.854;174.870;2023-04-07T13:06:50;2.40;;;2.40;;
19643;SDS011;9970;-36.854;174.870;2023-04-07T13:09:23;2.40;;;2.40;;
19643;SDS011;9970;-36.854;174.870;2023-04-07T13:11:56;2.30;;;2.30;;
19643;SDS011;9970;-36.854;174.870;2023-04-07T13:14:29;2.40;;;2.40;;
19643;SDS011;9970;-36.854;174.870;2023-04-07T13:17:03;2.30;;;2.30;;
19643;SDS011;9970;-36.854;174.870;2023-04-07T13:19:37;2.30;;;2.30;;
19643;SDS011;9970;-36.854;174.870;2023-04-07T13:22:10;2.40;;;2.40;;
19643;SDS011;9970;-36.854;174.870;2023-04-07T13:24:44;2.40;;;2.40;;
19643;SDS011;9970;-36.854;174.870;2023-04-07T13:27:17;2.50;;;2.50;;
19643;SDS011;9970;-36.854;174.870;2023-04-07T13:29:50;2.50;;;2.50;;
19643;SDS011;9970;-36.854;174.870;2023-04-07T13:32:23;2.60;;;2.60;;
19643;SDS011;9970;-36.854;174.870;2023-04-07T13:34:56;2.50;;;2.50;;
19643;SDS011;9970;-36.854;174.870;2023-04-07T13:37:33;2.60;;;2.60;;
19643;SDS011;9970;-36.854;174.870;2023-04-07T13:40:07;2.40;;;2.40;;
19643;SDS011;9970;-36.854;174.870;2023-04-07T13:42:41;2.40;;;2.40;;
19643;SDS011;9970;-36.854;174.870;2023-04-07T13:45:14;2.40;;;2.40;;
19643;SDS011;9970;-36.854;174.870;2023-04-07T13:47:47;2.40;;;2.40;;
19643;SDS011;9970;-36.854;174.870;2023-04-07T13:50:21;2.40;;;2.40;;
19643;SDS011;9970;-36.854;174.870;2023-04-07T13:52:54;2.30;;;2.30;;
19643;SDS011;9970;-36.854;174.870;2023-04-07T13:55:27;2.20;;;2.20;;
19643;SDS011;9970;-36.854;174.870;2023-04-07T13:58:00;2.30;;;2.30;;
19643;SDS011;9970;-36.854;174.870;2023-04-07T14:00:33;2.33;;;2.33;;
19643;SDS011;9970;-36.854;174.870;2023-04-07T14:03:07;2.40;;;2.40;;
19643;SDS011;9970;-36.854;174.870;2023-04-07T14:05:40;2.40;;;2.40;;
19643;SDS011;9970;-36.854;174.870;2023-04-07T14:08:14;2.50;;;2.50;;
19643;SDS011;9970;-36.854;174.870;2023-04-07T14:10:47;2.47;;;2.47;;
19643;SDS011;9970;-36.854;174.870;2023-04-07T14:13:20;2.30;;;2.30;;
19643;SDS011;9970;-36.854;174.870;2023-04-07T14:15:53;2.60;;;2.60;;
19643;SDS011;9970;-36.854;174.870;2023-04-07T14:18:26;2.90;;;2.90;;
19643;SDS011;9970;-36.854;174.870;2023-04-07T14:20:59;2.60;;;2.60;;
19643;SDS011;9970;-36.854;174.870;2023-04-07T14:23:32;2.70;;;2.70;;
19643;SDS011;9970;-36.854;174.870;2023-04-07T14:26:08;2.60;;;2.60;;
19643;SDS011;9970;-36.854;174.870;2023-04-07T14:28:40;2.50;;;2.50;;
19643;SDS011;9970;-36.854;174.870;2023-04-07T14:31:18;2.60;;;2.60;;
19643;SDS011;9970;-36.854;174.870;2023-04-07T14:33:48;2.50;;;2.50;;
19643;SDS011;9970;-36.854;174.870;2023-04-07T14:36:21;2.40;;;2.40;;
19643;SDS011;9970;-36.854;174.870;2023-04-07T14:38:54;2.50;;;2.50;;
19643;SDS011;9970;-36.854;174.870;2023-04-07T14:41:27;2.30;;;2.30;;
19643;SDS011;9970;-36.854;174.870;2023-04-07T14:44:01;2.40;;;2.40;;
19643;SDS011;9970;-36.854;174.870;2023-04-07T14:46:34;2.30;;;2.30;;
19643;SDS011;9970;-36.854;174.870;2023-04-07T14:49:07;2.30;;;2.30;;
19643;SDS011;9970;-36.854;174.870;2023-04-07T14:51:41;2.20;;;2.20;;
19643;SDS011;9970;-36.854;174.870;2023-04-07T14:54:14;2.20;;;2.20;;
19643;SDS011;9970;-36.854;174.870;2023-04-07T14:56:47;2.27;;;2.27;;
19643;SDS011;9970;-36.854;174.870;2023-04-07T14:59:20;2.20;;;2.20;;
19643;SDS011;9970;-36.854;174.870;2023-04-07T15:01:53;2.30;;;2.30;;
19643;SDS011;9970;-36.854;174.870;2023-04-07T15:04:26;2.20;;;2.20;;
19643;SDS011;9970;-36.854;174.870;2023-04-07T15:06:59;2.20;;;2.20;;
19643;SDS011;9970;-36.854;174.870;2023-04-07T15:09:32;2.20;;;2.20;;
19643;SDS011;9970;-36.854;174.870;2023-04-07T15:12:05;2.30;;;2.30;;
19643;SDS011;9970;-36.854;174.870;2023-04-07T15:14:38;2.20;;;2.20;;
19643;SDS011;9970;-36.854;174.870;2023-04-07T15:17:11;2.30;;;2.30;;
19643;SDS011;9970;-36.854;174.870;2023-04-07T15:19:44;2.20;;;2.20;;